sensor_id;sensor_type;location;lat;lon;timestamp;temperature;humidity
38592;DHT22;24356;48.460;11.450;2023-02-01T00:00:45;2.20;89.90
38592;DHT22;24356;48.460;11.450;2023-02-01T00:03:10;2.20;90.00
38592;DHT22;24356;48.460;11.450;2023-02-01T00:05:38;2.20;89.90
38592;DHT22;24356;48.460;11.450;2023-02-01T00:08:04;2.10;89.80
38592;DHT22;24356;48.460;11.450;2023-02-01T00:10:30;2.20;90.00
38592;DHT22;24356;48.460;11.450;2023-02-01T00:12:55;2.10;90.00
38592;DHT22;24356;48.460;11.450;2023-02-01T00:15:21;2.10;90.20
38592;DHT22;24356;48.460;11.450;2023-02-01T00:17:52;2.10;90.20
38592;DHT22;24356;48.460;11.450;2023-02-01T00:20:18;2.10;90.20
38592;DHT22;24356;48.460;11.450;2023-02-01T00:22:44;2.10;90.20
38592;DHT22;24356;48.460;11.450;2023-02-01T00:25:10;2.00;90.20
38592;DHT22;24356;48.460;11.450;2023-02-01T00:27:35;2.00;90.30
38592;DHT22;24356;48.460;11.450;2023-02-01T00:30:01;2.00;90.30
38592;DHT22;24356;48.460;11.450;2023-02-01T00:32:27;2.00;90.30
38592;DHT22;24356;48.460;11.450;2023-02-01T00:34:52;2.00;90.30
38592;DHT22;24356;48.460;11.450;2023-02-01T00:37:18;2.00;90.40
38592;DHT22;24356;48.460;11.450;2023-02-01T00:39:43;2.00;90.40
38592;DHT22;24356;48.460;11.450;2023-02-01T00:42:09;2.00;90.40
38592;DHT22;24356;48.460;11.450;2023-02-01T00:44:35;2.00;90.30
38592;DHT22;24356;48.460;11.450;2023-02-01T00:47:01;2.00;90.30
38592;DHT22;24356;48.460;11.450;2023-02-01T00:49:27;2.00;90.30
38592;DHT22;24356;48.460;11.450;2023-02-01T00:51:54;2.00;90.30
38592;DHT22;24356;48.460;11.450;2023-02-01T00:54:20;2.00;90.50
38592;DHT22;24356;48.460;11.450;2023-02-01T00:56:45;2.00;90.60
38592;DHT22;24356;48.460;11.450;2023-02-01T00:59:12;2.00;90.50
38592;DHT22;24356;48.460;11.450;2023-02-01T01:01:37;2.00;90.50
38592;DHT22;24356;48.460;11.450;2023-02-01T01:04:04;2.00;90.60
38592;DHT22;24356;48.460;11.450;2023-02-01T01:06:32;2.00;90.60
38592;DHT22;24356;48.460;11.450;2023-02-01T01:09:00;2.00;90.60
38592;DHT22;24356;48.460;11.450;2023-02-01T01:11:29;2.00;90.60
38592;DHT22;24356;48.460;11.450;2023-02-01T01:13:57;2.00;90.60
38592;DHT22;24356;48.460;11.450;2023-02-01T01:16:25;1.90;90.70
38592;DHT22;24356;48.460;11.450;2023-02-01T01:18:51;1.90;90.80
38592;DHT22;24356;48.460;11.450;2023-02-01T01:21:17;1.90;90.70
38592;DHT22;24356;48.460;11.450;2023-02-01T01:23:45;2.00;90.70
38592;DHT22;24356;48.460;11.450;2023-02-01T01:26:20;2.00;90.70
38592;DHT22;24356;48.460;11.450;2023-02-01T01:28:46;1.90;90.80
38592;DHT22;24356;48.460;11.450;2023-02-01T01:31:14;2.00;90.80
38592;DHT22;24356;48.460;11.450;2023-02-01T01:33:40;2.00;90.80
38592;DHT22;24356;48.460;11.450;2023-02-01T01:36:07;2.00;90.80
38592;DHT22;24356;48.460;11.450;2023-02-01T01:38:36;2.00;90.70
38592;DHT22;24356;48.460;11.450;2023-02-01T01:41:02;2.00;90.80
38592;DHT22;24356;48.460;11.450;2023-02-01T01:43:50;2.00;90.70
38592;DHT22;24356;48.460;11.450;2023-02-01T01:46:18;2.00;90.80
38592;DHT22;24356;48.460;11.450;2023-02-01T01:48:43;2.00;90.80
38592;DHT22;24356;48.460;11.450;2023-02-01T01:51:11;2.00;90.90
38592;DHT22;24356;48.460;11.450;2023-02-01T01:53:47;2.00;90.90
38592;DHT22;24356;48.460;11.450;2023-02-01T01:56:15;2.10;90.80
38592;DHT22;24356;48.460;11.450;2023-02-01T01:58:41;2.10;90.70
38592;DHT22;24356;48.460;11.450;2023-02-01T02:01:07;2.10;90.80
38592;DHT22;24356;48.460;11.450;2023-02-01T02:03:36;2.10;90.80
38592;DHT22;24356;48.460;11.450;2023-02-01T02:06:08;2.10;90.80
38592;DHT22;24356;48.460;11.450;2023-02-01T02:08:39;2.10;90.80
38592;DHT22;24356;48.460;11.450;2023-02-01T02:11:04;2.10;90.80
38592;DHT22;24356;48.460;11.450;2023-02-01T02:13:42;2.10;90.80
38592;DHT22;24356;48.460;11.450;2023-02-01T02:32:35;2.10;90.80
38592;DHT22;24356;48.460;11.450;2023-02-01T02:35:22;2.10;90.80
38592;DHT22;24356;48.460;11.450;2023-02-01T02:38:09;2.10;90.80
38592;DHT22;24356;48.460;11.450;2023-02-01T02:43:22;2.20;90.70
38592;DHT22;24356;48.460;11.450;2023-02-01T02:46:20;2.20;90.70
38592;DHT22;24356;48.460;11.450;2023-02-01T02:51:52;2.10;90.90
38592;DHT22;24356;48.460;11.450;2023-02-01T02:54:41;2.10;90.80
38592;DHT22;24356;48.460;11.450;2023-02-01T03:00:15;2.10;90.80
38592;DHT22;24356;48.460;11.450;2023-02-01T03:03:01;2.10;90.80
38592;DHT22;24356;48.460;11.450;2023-02-01T03:05:47;2.10;90.90
38592;DHT22;24356;48.460;11.450;2023-02-01T03:08:21;2.10;90.80
38592;DHT22;24356;48.460;11.450;2023-02-01T03:11:00;2.10;90.90
38592;DHT22;24356;48.460;11.450;2023-02-01T03:13:46;2.10;90.90
38592;DHT22;24356;48.460;11.450;2023-02-01T03:16:36;2.00;90.80
38592;DHT22;24356;48.460;11.450;2023-02-01T03:19:11;2.00;90.80
38592;DHT22;24356;48.460;11.450;2023-02-01T03:24:12;2.00;90.80
38592;DHT22;24356;48.460;11.450;2023-02-01T03:26:46;2.00;90.80
38592;DHT22;24356;48.460;11.450;2023-02-01T03:29:21;2.00;90.90
38592;DHT22;24356;48.460;11.450;2023-02-01T03:31:49;1.90;90.90
38592;DHT22;24356;48.460;11.450;2023-02-01T03:34:15;1.90;90.90
38592;DHT22;24356;48.460;11.450;2023-02-01T03:36:49;1.90;91.00
38592;DHT22;24356;48.460;11.450;2023-02-01T03:39:36;1.90;91.00
38592;DHT22;24356;48.460;11.450;2023-02-01T03:42:48;1.90;91.00
38592;DHT22;24356;48.460;11.450;2023-02-01T03:47:40;1.90;91.00
38592;DHT22;24356;48.460;11.450;2023-02-01T03:50:14;1.90;91.20
38592;DHT22;24356;48.460;11.450;2023-02-01T03:52:56;1.90;91.20
38592;DHT22;24356;48.460;11.450;2023-02-01T03:55:25;1.80;91.20
38592;DHT22;24356;48.460;11.450;2023-02-01T03:58:01;1.80;91.20
38592;DHT22;24356;48.460;11.450;2023-02-01T04:00:29;1.80;91.30
38592;DHT22;24356;48.460;11.450;2023-02-01T04:02:54;1.80;91.30
38592;DHT22;24356;48.460;11.450;2023-02-01T04:05:21;1.80;91.40
38592;DHT22;24356;48.460;11.450;2023-02-01T04:07:46;1.80;91.30
38592;DHT22;24356;48.460;11.450;2023-02-01T04:10:13;1.80;91.30
38592;DHT22;24356;48.460;11.450;2023-02-01T04:12:39;1.80;91.30
38592;DHT22;24356;48.460;11.450;2023-02-01T04:15:06;1.80;91.30
38592;DHT22;24356;48.460;11.450;2023-02-01T04:17:34;1.90;91.30
38592;DHT22;24356;48.460;11.450;2023-02-01T04:19:59;1.90;91.40
38592;DHT22;24356;48.460;11.450;2023-02-01T04:22:27;1.90;91.20
38592;DHT22;24356;48.460;11.450;2023-02-01T04:24:54;1.90;91.20
38592;DHT22;24356;48.460;11.450;2023-02-01T04:27:19;1.90;91.20
38592;DHT22;24356;48.460;11.450;2023-02-01T04:29:45;1.90;91.30
38592;DHT22;24356;48.460;11.450;2023-02-01T04:32:10;1.90;91.30
38592;DHT22;24356;48.460;11.450;2023-02-01T04:34:36;1.90;91.20
38592;DHT22;24356;48.460;11.450;2023-02-01T04:37:02;1.90;91.20
38592;DHT22;24356;48.460;11.450;2023-02-01T04:39:28;1.90;91.20
38592;DHT22;24356;48.460;11.450;2023-02-01T04:41:54;1.90;91.20
38592;DHT22;24356;48.460;11.450;2023-02-01T04:44:19;1.90;91.20
38592;DHT22;24356;48.460;11.450;2023-02-01T04:46:46;1.90;91.30
38592;DHT22;24356;48.460;11.450;2023-02-01T04:49:13;1.90;91.10
38592;DHT22;24356;48.460;11.450;2023-02-01T04:51:40;2.00;91.10
38592;DHT22;24356;48.460;11.450;2023-02-01T04:54:06;2.00;91.20
38592;DHT22;24356;48.460;11.450;2023-02-01T04:56:32;2.00;91.10
38592;DHT22;24356;48.460;11.450;2023-02-01T04:58:58;2.00;91.10
38592;DHT22;24356;48.460;11.450;2023-02-01T05:01:24;2.00;91.00
38592;DHT22;24356;48.460;11.450;2023-02-01T05:03:50;2.00;91.10
38592;DHT22;24356;48.460;11.450;2023-02-01T05:06:16;2.00;91.10
38592;DHT22;24356;48.460;11.450;2023-02-01T05:08:42;2.00;91.20
38592;DHT22;24356;48.460;11.450;2023-02-01T05:11:08;2.00;91.20
38592;DHT22;24356;48.460;11.450;2023-02-01T05:13:53;2.00;91.10
38592;DHT22;24356;48.460;11.450;2023-02-01T05:16:19;2.00;91.20
38592;DHT22;24356;48.460;11.450;2023-02-01T05:18:44;2.00;91.10
38592;DHT22;24356;48.460;11.450;2023-02-01T05:21:10;2.00;91.10
38592;DHT22;24356;48.460;11.450;2023-02-01T05:23:36;2.00;91.20
38592;DHT22;24356;48.460;11.450;2023-02-01T05:26:22;2.00;91.10
38592;DHT22;24356;48.460;11.450;2023-02-01T05:28:48;2.00;91.20
38592;DHT22;24356;48.460;11.450;2023-02-01T05:31:14;2.00;91.30
38592;DHT22;24356;48.460;11.450;2023-02-01T05:33:39;2.00;91.20
38592;DHT22;24356;48.460;11.450;2023-02-01T05:36:06;2.10;91.20
38592;DHT22;24356;48.460;11.450;2023-02-01T05:38:32;2.10;91.20
38592;DHT22;24356;48.460;11.450;2023-02-01T05:40:59;2.10;91.20
38592;DHT22;24356;48.460;11.450;2023-02-01T05:43:24;2.10;91.20
38592;DHT22;24356;48.460;11.450;2023-02-01T05:45:51;2.10;91.20
38592;DHT22;24356;48.460;11.450;2023-02-01T05:48:17;2.10;91.10
38592;DHT22;24356;48.460;11.450;2023-02-01T05:50:43;2.10;91.20
38592;DHT22;24356;48.460;11.450;2023-02-01T05:53:09;2.10;91.20
38592;DHT22;24356;48.460;11.450;2023-02-01T05:55:35;2.10;91.20
38592;DHT22;24356;48.460;11.450;2023-02-01T05:58:01;2.10;91.20
38592;DHT22;24356;48.460;11.450;2023-02-01T06:00:26;2.10;91.20
38592;DHT22;24356;48.460;11.450;2023-02-01T06:02:53;2.10;91.20
38592;DHT22;24356;48.460;11.450;2023-02-01T06:05:25;2.20;91.20
38592;DHT22;24356;48.460;11.450;2023-02-01T06:07:50;2.20;91.20
38592;DHT22;24356;48.460;11.450;2023-02-01T06:10:17;2.20;91.10
38592;DHT22;24356;48.460;11.450;2023-02-01T06:12:44;2.20;91.20
38592;DHT22;24356;48.460;11.450;2023-02-01T06:15:13;2.20;91.10
38592;DHT22;24356;48.460;11.450;2023-02-01T06:17:41;2.10;91.20
38592;DHT22;24356;48.460;11.450;2023-02-01T06:20:09;2.20;91.20
38592;DHT22;24356;48.460;11.450;2023-02-01T06:22:36;2.20;91.20
38592;DHT22;24356;48.460;11.450;2023-02-01T06:25:03;2.20;91.20
38592;DHT22;24356;48.460;11.450;2023-02-01T06:27:28;2.20;91.20
38592;DHT22;24356;48.460;11.450;2023-02-01T06:29:55;2.20;91.20
38592;DHT22;24356;48.460;11.450;2023-02-01T06:32:21;2.20;91.20
38592;DHT22;24356;48.460;11.450;2023-02-01T06:34:48;2.20;91.20
38592;DHT22;24356;48.460;11.450;2023-02-01T06:37:13;2.20;91.20
38592;DHT22;24356;48.460;11.450;2023-02-01T06:39:39;2.20;91.20
38592;DHT22;24356;48.460;11.450;2023-02-01T06:42:05;2.20;91.10
38592;DHT22;24356;48.460;11.450;2023-02-01T06:44:30;2.20;91.10
38592;DHT22;24356;48.460;11.450;2023-02-01T06:46:56;2.20;91.00
38592;DHT22;24356;48.460;11.450;2023-02-01T06:49:22;2.20;91.10
38592;DHT22;24356;48.460;11.450;2023-02-01T06:51:47;2.20;91.10
38592;DHT22;24356;48.460;11.450;2023-02-01T06:54:13;2.20;91.00
38592;DHT22;24356;48.460;11.450;2023-02-01T06:56:40;2.20;91.10
38592;DHT22;24356;48.460;11.450;2023-02-01T06:59:07;2.20;91.00
38592;DHT22;24356;48.460;11.450;2023-02-01T07:01:33;2.20;91.10
38592;DHT22;24356;48.460;11.450;2023-02-01T07:03:59;2.20;91.10
38592;DHT22;24356;48.460;11.450;2023-02-01T07:06:24;2.20;91.10
38592;DHT22;24356;48.460;11.450;2023-02-01T07:08:50;2.30;91.10
38592;DHT22;24356;48.460;11.450;2023-02-01T07:11:17;2.30;91.10
38592;DHT22;24356;48.460;11.450;2023-02-01T07:13:44;2.20;91.10
38592;DHT22;24356;48.460;11.450;2023-02-01T07:16:15;2.30;91.10
38592;DHT22;24356;48.460;11.450;2023-02-01T07:18:41;2.30;91.10
38592;DHT22;24356;48.460;11.450;2023-02-01T07:21:07;2.30;91.10
38592;DHT22;24356;48.460;11.450;2023-02-01T07:23:33;2.30;91.00
38592;DHT22;24356;48.460;11.450;2023-02-01T07:26:01;2.30;91.00
38592;DHT22;24356;48.460;11.450;2023-02-01T07:28:29;2.30;91.00
38592;DHT22;24356;48.460;11.450;2023-02-01T07:31:01;2.30;91.00
38592;DHT22;24356;48.460;11.450;2023-02-01T07:33:28;2.30;91.10
38592;DHT22;24356;48.460;11.450;2023-02-01T07:35:55;2.30;91.10
38592;DHT22;24356;48.460;11.450;2023-02-01T07:38:21;2.30;91.10
38592;DHT22;24356;48.460;11.450;2023-02-01T07:40:47;2.30;91.10
38592;DHT22;24356;48.460;11.450;2023-02-01T07:43:13;2.40;91.10
38592;DHT22;24356;48.460;11.450;2023-02-01T07:45:39;2.40;91.10
38592;DHT22;24356;48.460;11.450;2023-02-01T07:48:05;2.40;91.00
38592;DHT22;24356;48.460;11.450;2023-02-01T07:50:30;2.40;91.00
38592;DHT22;24356;48.460;11.450;2023-02-01T07:52:59;2.40;91.00
38592;DHT22;24356;48.460;11.450;2023-02-01T07:55:25;2.40;91.00
38592;DHT22;24356;48.460;11.450;2023-02-01T07:57:51;2.50;91.00
38592;DHT22;24356;48.460;11.450;2023-02-01T08:00:17;2.40;91.00
38592;DHT22;24356;48.460;11.450;2023-02-01T08:03:03;2.50;91.00
38592;DHT22;24356;48.460;11.450;2023-02-01T08:05:29;2.50;90.90
38592;DHT22;24356;48.460;11.450;2023-02-01T08:07:56;2.50;90.90
38592;DHT22;24356;48.460;11.450;2023-02-01T08:10:21;2.50;90.90
38592;DHT22;24356;48.460;11.450;2023-02-01T08:12:47;2.50;90.80
38592;DHT22;24356;48.460;11.450;2023-02-01T08:15:15;2.60;90.90
38592;DHT22;24356;48.460;11.450;2023-02-01T08:17:46;2.60;90.80
38592;DHT22;24356;48.460;11.450;2023-02-01T08:20:12;2.60;90.90
38592;DHT22;24356;48.460;11.450;2023-02-01T08:22:38;2.60;90.80
38592;DHT22;24356;48.460;11.450;2023-02-01T08:25:06;2.60;90.70
38592;DHT22;24356;48.460;11.450;2023-02-01T08:27:37;2.60;90.60
38592;DHT22;24356;48.460;11.450;2023-02-01T08:30:04;2.70;90.70
38592;DHT22;24356;48.460;11.450;2023-02-01T08:32:30;2.70;90.80
38592;DHT22;24356;48.460;11.450;2023-02-01T08:34:55;2.70;90.70
38592;DHT22;24356;48.460;11.450;2023-02-01T08:37:22;2.70;90.60
38592;DHT22;24356;48.460;11.450;2023-02-01T08:39:49;2.70;90.60
38592;DHT22;24356;48.460;11.450;2023-02-01T08:42:16;2.70;90.50
38592;DHT22;24356;48.460;11.450;2023-02-01T08:45:01;2.80;90.60
38592;DHT22;24356;48.460;11.450;2023-02-01T08:47:27;2.80;90.60
38592;DHT22;24356;48.460;11.450;2023-02-01T08:49:53;2.80;90.60
38592;DHT22;24356;48.460;11.450;2023-02-01T08:52:19;2.80;90.70
38592;DHT22;24356;48.460;11.450;2023-02-01T08:54:45;2.80;90.30
38592;DHT22;24356;48.460;11.450;2023-02-01T08:57:11;2.80;90.50
38592;DHT22;24356;48.460;11.450;2023-02-01T08:59:37;2.90;90.30
38592;DHT22;24356;48.460;11.450;2023-02-01T09:02:02;2.90;90.30
38592;DHT22;24356;48.460;11.450;2023-02-01T09:04:28;2.90;90.20
38592;DHT22;24356;48.460;11.450;2023-02-01T09:06:55;2.90;90.30
38592;DHT22;24356;48.460;11.450;2023-02-01T09:09:27;2.90;90.30
38592;DHT22;24356;48.460;11.450;2023-02-01T09:11:52;2.90;90.30
38592;DHT22;24356;48.460;11.450;2023-02-01T09:14:18;3.00;90.40
38592;DHT22;24356;48.460;11.450;2023-02-01T09:16:44;3.00;90.20
38592;DHT22;24356;48.460;11.450;2023-02-01T09:19:11;3.00;90.30
38592;DHT22;24356;48.460;11.450;2023-02-01T09:21:37;3.10;90.40
38592;DHT22;24356;48.460;11.450;2023-02-01T09:24:02;3.10;90.40
38592;DHT22;24356;48.460;11.450;2023-02-01T09:26:30;3.10;90.20
38592;DHT22;24356;48.460;11.450;2023-02-01T09:29:05;3.10;90.30
38592;DHT22;24356;48.460;11.450;2023-02-01T09:31:35;3.20;90.20
38592;DHT22;24356;48.460;11.450;2023-02-01T09:34:02;3.20;90.20
38592;DHT22;24356;48.460;11.450;2023-02-01T09:36:28;3.20;90.10
38592;DHT22;24356;48.460;11.450;2023-02-01T09:38:54;3.30;90.20
38592;DHT22;24356;48.460;11.450;2023-02-01T09:42:04;3.30;90.00
38592;DHT22;24356;48.460;11.450;2023-02-01T09:44:57;3.30;89.80
38592;DHT22;24356;48.460;11.450;2023-02-01T09:47:27;3.40;89.80
38592;DHT22;24356;48.460;11.450;2023-02-01T09:52:41;3.40;89.80
38592;DHT22;24356;48.460;11.450;2023-02-01T09:55:27;3.40;89.80
38592;DHT22;24356;48.460;11.450;2023-02-01T09:58:00;3.50;89.90
38592;DHT22;24356;48.460;11.450;2023-02-01T10:00:30;3.50;89.70
38592;DHT22;24356;48.460;11.450;2023-02-01T10:02:59;3.50;89.60
38592;DHT22;24356;48.460;11.450;2023-02-01T10:08:15;3.50;89.70
38592;DHT22;24356;48.460;11.450;2023-02-01T10:10:47;3.60;89.60
38592;DHT22;24356;48.460;11.450;2023-02-01T10:18:50;3.60;89.40
38592;DHT22;24356;48.460;11.450;2023-02-01T10:24:20;3.60;89.20
38592;DHT22;24356;48.460;11.450;2023-02-01T10:27:40;3.70;89.20
38592;DHT22;24356;48.460;11.450;2023-02-01T10:29:44;3.70;89.10
38592;DHT22;24356;48.460;11.450;2023-02-01T10:32:23;3.70;88.90
38592;DHT22;24356;48.460;11.450;2023-02-01T10:34:55;3.70;89.00
38592;DHT22;24356;48.460;11.450;2023-02-01T10:37:34;3.70;88.90
38592;DHT22;24356;48.460;11.450;2023-02-01T10:40:21;3.70;88.70
38592;DHT22;24356;48.460;11.450;2023-02-01T10:42:59;3.70;88.80
38592;DHT22;24356;48.460;11.450;2023-02-01T10:45:32;3.70;88.80
38592;DHT22;24356;48.460;11.450;2023-02-01T10:48:02;3.70;88.80
38592;DHT22;24356;48.460;11.450;2023-02-01T10:50:44;3.70;88.80
38592;DHT22;24356;48.460;11.450;2023-02-01T10:53:17;3.70;89.00
38592;DHT22;24356;48.460;11.450;2023-02-01T10:58:25;3.70;88.60
38592;DHT22;24356;48.460;11.450;2023-02-01T11:03:41;3.70;88.80
38592;DHT22;24356;48.460;11.450;2023-02-01T11:06:39;3.80;88.80
38592;DHT22;24356;48.460;11.450;2023-02-01T11:09:11;3.70;88.80
38592;DHT22;24356;48.460;11.450;2023-02-01T11:16:49;3.80;88.70
38592;DHT22;24356;48.460;11.450;2023-02-01T11:19:17;3.80;88.80
38592;DHT22;24356;48.460;11.450;2023-02-01T11:21:44;3.80;88.70
38592;DHT22;24356;48.460;11.450;2023-02-01T11:24:31;3.90;88.80
38592;DHT22;24356;48.460;11.450;2023-02-01T11:27:00;3.90;88.80
38592;DHT22;24356;48.460;11.450;2023-02-01T11:29:40;3.90;88.70
38592;DHT22;24356;48.460;11.450;2023-02-01T11:32:08;3.90;88.60
38592;DHT22;24356;48.460;11.450;2023-02-01T11:34:38;3.90;88.70
38592;DHT22;24356;48.460;11.450;2023-02-01T11:37:19;3.90;88.60
38592;DHT22;24356;48.460;11.450;2023-02-01T11:39:57;3.90;88.40
38592;DHT22;24356;48.460;11.450;2023-02-01T11:42:23;3.90;88.40
38592;DHT22;24356;48.460;11.450;2023-02-01T11:44:49;3.90;88.50
38592;DHT22;24356;48.460;11.450;2023-02-01T11:47:26;3.90;88.30
38592;DHT22;24356;48.460;11.450;2023-02-01T11:49:59;3.90;88.40
38592;DHT22;24356;48.460;11.450;2023-02-01T11:58:16;3.80;88.40
38592;DHT22;24356;48.460;11.450;2023-02-01T12:01:10;3.80;88.30
38592;DHT22;24356;48.460;11.450;2023-02-01T12:09:14;3.80;88.50
38592;DHT22;24356;48.460;11.450;2023-02-01T12:36:35;3.80;88.30
38592;DHT22;24356;48.460;11.450;2023-02-01T12:47:47;3.80;88.40
38592;DHT22;24356;48.460;11.450;2023-02-01T12:50:19;3.80;88.50
38592;DHT22;24356;48.460;11.450;2023-02-01T12:52:52;3.80;88.50
38592;DHT22;24356;48.460;11.450;2023-02-01T13:00:38;3.80;88.30
38592;DHT22;24356;48.460;11.450;2023-02-01T13:06:03;3.80;88.30
38592;DHT22;24356;48.460;11.450;2023-02-01T13:11:48;3.90;87.30
38592;DHT22;24356;48.460;11.450;2023-02-01T13:17:10;4.00;87.30
38592;DHT22;24356;48.460;11.450;2023-02-01T13:19:49;3.90;87.70
38592;DHT22;24356;48.460;11.450;2023-02-01T13:22:40;3.90;87.70
38592;DHT22;24356;48.460;11.450;2023-02-01T13:27:57;3.90;87.60
38592;DHT22;24356;48.460;11.450;2023-02-01T13:36:34;3.90;87.90
38592;DHT22;24356;48.460;11.450;2023-02-01T13:39:24;3.90;87.80
38592;DHT22;24356;48.460;11.450;2023-02-01T13:41:59;3.90;87.60
38592;DHT22;24356;48.460;11.450;2023-02-01T13:44:42;3.90;87.80
38592;DHT22;24356;48.460;11.450;2023-02-01T13:47:31;3.90;87.90
38592;DHT22;24356;48.460;11.450;2023-02-01T13:50:13;3.90;87.70
38592;DHT22;24356;48.460;11.450;2023-02-01T13:52:45;3.90;87.70
38592;DHT22;24356;48.460;11.450;2023-02-01T13:55:27;3.90;87.80
38592;DHT22;24356;48.460;11.450;2023-02-01T13:58:10;3.90;88.00
38592;DHT22;24356;48.460;11.450;2023-02-01T14:00:39;3.90;87.90
38592;DHT22;24356;48.460;11.450;2023-02-01T14:08:14;3.90;87.90
38592;DHT22;24356;48.460;11.450;2023-02-01T14:10:53;3.90;87.70
38592;DHT22;24356;48.460;11.450;2023-02-01T14:13:33;3.80;87.90
38592;DHT22;24356;48.460;11.450;2023-02-01T14:34:27;3.80;87.80
38592;DHT22;24356;48.460;11.450;2023-02-01T14:36:58;3.80;87.60
38592;DHT22;24356;48.460;11.450;2023-02-01T14:55:49;3.70;88.10
38592;DHT22;24356;48.460;11.450;2023-02-01T15:04:15;3.70;88.20
38592;DHT22;24356;48.460;11.450;2023-02-01T15:06:52;3.70;88.30
38592;DHT22;24356;48.460;11.450;2023-02-01T15:09:24;3.70;88.30
38592;DHT22;24356;48.460;11.450;2023-02-01T15:14:24;3.70;88.20
38592;DHT22;24356;48.460;11.450;2023-02-01T15:16:50;3.60;88.30
38592;DHT22;24356;48.460;11.450;2023-02-01T15:19:24;3.70;88.10
38592;DHT22;24356;48.460;11.450;2023-02-01T15:21:55;3.60;88.00
38592;DHT22;24356;48.460;11.450;2023-02-01T15:26:49;3.60;88.00
38592;DHT22;24356;48.460;11.450;2023-02-01T15:29:16;3.70;87.90
38592;DHT22;24356;48.460;11.450;2023-02-01T15:31:50;3.70;87.90
38592;DHT22;24356;48.460;11.450;2023-02-01T15:34:17;3.60;88.00
38592;DHT22;24356;48.460;11.450;2023-02-01T15:36:44;3.60;88.30
38592;DHT22;24356;48.460;11.450;2023-02-01T15:39:22;3.60;88.30
38592;DHT22;24356;48.460;11.450;2023-02-01T15:41:58;3.60;88.10
38592;DHT22;24356;48.460;11.450;2023-02-01T15:44:41;3.60;88.10
38592;DHT22;24356;48.460;11.450;2023-02-01T15:47:15;3.60;88.20
38592;DHT22;24356;48.460;11.450;2023-02-01T15:49:43;3.60;88.30
38592;DHT22;24356;48.460;11.450;2023-02-01T15:54:50;3.50;88.20
38592;DHT22;24356;48.460;11.450;2023-02-01T15:57:35;3.50;88.30
38592;DHT22;24356;48.460;11.450;2023-02-01T16:00:25;3.50;88.20
38592;DHT22;24356;48.460;11.450;2023-02-01T16:02:58;3.50;88.10
38592;DHT22;24356;48.460;11.450;2023-02-01T16:05:39;3.50;88.00
38592;DHT22;24356;48.460;11.450;2023-02-01T16:08:23;3.50;88.50
38592;DHT22;24356;48.460;11.450;2023-02-01T16:10:51;3.50;88.40
38592;DHT22;24356;48.460;11.450;2023-02-01T16:13:19;3.50;88.20
38592;DHT22;24356;48.460;11.450;2023-02-01T16:15:45;3.50;88.40
38592;DHT22;24356;48.460;11.450;2023-02-01T16:18:13;3.50;88.30
38592;DHT22;24356;48.460;11.450;2023-02-01T16:20:42;3.50;88.20
38592;DHT22;24356;48.460;11.450;2023-02-01T16:23:10;3.50;88.40
38592;DHT22;24356;48.460;11.450;2023-02-01T16:25:36;3.50;88.20
38592;DHT22;24356;48.460;11.450;2023-02-01T16:28:03;3.50;88.50
38592;DHT22;24356;48.460;11.450;2023-02-01T16:30:30;3.50;88.30
38592;DHT22;24356;48.460;11.450;2023-02-01T16:32:58;3.50;88.10
38592;DHT22;24356;48.460;11.450;2023-02-01T16:35:29;3.50;88.50
38592;DHT22;24356;48.460;11.450;2023-02-01T16:38:04;3.40;88.10
38592;DHT22;24356;48.460;11.450;2023-02-01T16:40:34;3.50;88.00
38592;DHT22;24356;48.460;11.450;2023-02-01T16:43:00;3.50;88.10
38592;DHT22;24356;48.460;11.450;2023-02-01T16:45:39;3.40;88.30
38592;DHT22;24356;48.460;11.450;2023-02-01T16:48:06;3.50;88.20
38592;DHT22;24356;48.460;11.450;2023-02-01T16:50:33;3.50;88.70
38592;DHT22;24356;48.460;11.450;2023-02-01T16:52:59;3.50;88.30
38592;DHT22;24356;48.460;11.450;2023-02-01T16:55:26;3.40;86.40
38592;DHT22;24356;48.460;11.450;2023-02-01T16:57:51;3.50;86.20
38592;DHT22;24356;48.460;11.450;2023-02-01T17:00:17;3.50;86.70
38592;DHT22;24356;48.460;11.450;2023-02-01T17:02:45;3.50;87.10
38592;DHT22;24356;48.460;11.450;2023-02-01T17:05:11;3.50;87.30
38592;DHT22;24356;48.460;11.450;2023-02-01T17:07:38;3.40;87.30
38592;DHT22;24356;48.460;11.450;2023-02-01T17:10:06;3.40;87.90
38592;DHT22;24356;48.460;11.450;2023-02-01T17:12:34;3.40;88.20
38592;DHT22;24356;48.460;11.450;2023-02-01T17:15:01;3.40;87.90
38592;DHT22;24356;48.460;11.450;2023-02-01T17:17:33;3.40;88.10
38592;DHT22;24356;48.460;11.450;2023-02-01T17:20:00;3.40;88.10
38592;DHT22;24356;48.460;11.450;2023-02-01T17:22:28;3.40;87.90
38592;DHT22;24356;48.460;11.450;2023-02-01T17:24:54;3.40;88.00
38592;DHT22;24356;48.460;11.450;2023-02-01T17:27:20;3.30;88.00
38592;DHT22;24356;48.460;11.450;2023-02-01T17:29:45;3.30;87.80
38592;DHT22;24356;48.460;11.450;2023-02-01T17:32:21;3.30;87.60
38592;DHT22;24356;48.460;11.450;2023-02-01T17:34:47;3.30;87.90
38592;DHT22;24356;48.460;11.450;2023-02-01T17:37:27;3.30;87.90
38592;DHT22;24356;48.460;11.450;2023-02-01T17:39:54;3.30;88.10
38592;DHT22;24356;48.460;11.450;2023-02-01T17:42:20;3.30;88.10
38592;DHT22;24356;48.460;11.450;2023-02-01T17:44:51;3.30;88.00
38592;DHT22;24356;48.460;11.450;2023-02-01T17:47:22;3.30;88.10
38592;DHT22;24356;48.460;11.450;2023-02-01T17:49:48;3.30;88.10
38592;DHT22;24356;48.460;11.450;2023-02-01T17:52:21;3.30;88.20
38592;DHT22;24356;48.460;11.450;2023-02-01T17:54:47;3.30;87.90
38592;DHT22;24356;48.460;11.450;2023-02-01T17:57:15;3.30;87.90
38592;DHT22;24356;48.460;11.450;2023-02-01T17:59:41;3.30;88.10
38592;DHT22;24356;48.460;11.450;2023-02-01T18:02:19;3.30;88.10
38592;DHT22;24356;48.460;11.450;2023-02-01T18:04:45;3.30;87.90
38592;DHT22;24356;48.460;11.450;2023-02-01T18:07:12;3.20;88.00
38592;DHT22;24356;48.460;11.450;2023-02-01T18:09:38;3.20;88.00
38592;DHT22;24356;48.460;11.450;2023-02-01T18:12:08;3.20;87.90
38592;DHT22;24356;48.460;11.450;2023-02-01T18:14:38;3.20;88.10
38592;DHT22;24356;48.460;11.450;2023-02-01T18:17:04;3.20;87.60
38592;DHT22;24356;48.460;11.450;2023-02-01T18:19:30;3.20;87.90
38592;DHT22;24356;48.460;11.450;2023-02-01T18:21:55;3.20;88.00
38592;DHT22;24356;48.460;11.450;2023-02-01T18:24:22;3.20;87.90
38592;DHT22;24356;48.460;11.450;2023-02-01T18:26:48;3.20;88.10
38592;DHT22;24356;48.460;11.450;2023-02-01T18:29:15;3.20;87.90
38592;DHT22;24356;48.460;11.450;2023-02-01T18:31:45;3.20;87.90
38592;DHT22;24356;48.460;11.450;2023-02-01T18:34:11;3.20;88.00
38592;DHT22;24356;48.460;11.450;2023-02-01T18:36:41;3.20;88.20
38592;DHT22;24356;48.460;11.450;2023-02-01T18:39:07;3.20;88.20
38592;DHT22;24356;48.460;11.450;2023-02-01T18:41:32;3.20;88.20
38592;DHT22;24356;48.460;11.450;2023-02-01T18:43:58;3.20;87.90